sensor_id;sensor_type;location;lat;lon;timestamp;P1;durP1;ratioP1;P2;durP2;ratioP2
3771;SDS011;1901;48.172;12.824;2023-10-13T00:00:23;5.70;;;3.90;;
3771;SDS011;1901;48.172;12.824;2023-10-13T00:02:55;6.77;;;4.53;;
3771;SDS011;1901;48.172;12.824;2023-10-13T00:05:26;14.30;;;5.00;;
3771;SDS011;1901;48.172;12.824;2023-10-13T00:07:56;10.13;;;4.30;;
3771;SDS011;1901;48.172;12.824;2023-10-13T00:10:26;10.87;;;7.10;;
3771;SDS011;1901;48.172;12.824;2023-10-13T00:12:53;10.00;;;5.27;;
3771;SDS011;1901;48.172;12.824;2023-10-13T00:15:31;11.70;;;5.10;;
3771;SDS011;1901;48.172;12.824;2023-10-13T00:18:05;6.53;;;4.50;;
3771;SDS011;1901;48.172;12.824;2023-10-13T00:20:39;9.23;;;3.80;;
3771;SDS011;1901;48.172;12.824;2023-10-13T00:23:12;6.83;;;3.70;;
3771;SDS011;1901;48.172;12.824;2023-10-13T00:25:39;8.83;;;4.00;;
3771;SDS011;1901;48.172;12.824;2023-10-13T00:28:14;7.70;;;3.80;;
3771;SDS011;1901;48.172;12.824;2023-10-13T00:30:48;9.37;;;3.07;;
3771;SDS011;1901;48.172;12.824;2023-10-13T00:33:18;10.00;;;4.60;;
3771;SDS011;1901;48.172;12.824;2023-10-13T00:35:49;6.80;;;3.10;;
3771;SDS011;1901;48.172;12.824;2023-10-13T00:38:17;5.90;;;3.53;;
3771;SDS011;1901;48.172;12.824;2023-10-13T00:40:45;8.07;;;3.37;;
3771;SDS011;1901;48.172;12.824;2023-10-13T00:43:17;12.13;;;3.73;;
3771;SDS011;1901;48.172;12.824;2023-10-13T00:46:04;8.60;;;4.23;;
3771;SDS011;1901;48.172;12.824;2023-10-13T00:48:34;7.03;;;3.93;;
3771;SDS011;1901;48.172;12.824;2023-10-13T00:51:09;5.07;;;4.10;;
3771;SDS011;1901;48.172;12.824;2023-10-13T00:53:43;7.57;;;3.63;;
3771;SDS011;1901;48.172;12.824;2023-10-13T00:56:13;8.33;;;4.10;;
3771;SDS011;1901;48.172;12.824;2023-10-13T00:58:48;4.60;;;3.70;;
3771;SDS011;1901;48.172;12.824;2023-10-13T01:01:16;7.17;;;3.70;;
3771;SDS011;1901;48.172;12.824;2023-10-13T01:03:46;5.73;;;4.17;;
3771;SDS011;1901;48.172;12.824;2023-10-13T01:06:15;7.30;;;4.77;;
3771;SDS011;1901;48.172;12.824;2023-10-13T01:08:45;5.97;;;3.83;;
3771;SDS011;1901;48.172;12.824;2023-10-13T01:11:17;14.57;;;4.90;;
3771;SDS011;1901;48.172;12.824;2023-10-13T01:13:48;5.33;;;3.50;;
3771;SDS011;1901;48.172;12.824;2023-10-13T01:16:16;7.43;;;3.90;;
3771;SDS011;1901;48.172;12.824;2023-10-13T01:18:45;7.60;;;4.33;;
3771;SDS011;1901;48.172;12.824;2023-10-13T01:21:16;6.00;;;3.27;;
3771;SDS011;1901;48.172;12.824;2023-10-13T01:23:46;7.43;;;3.60;;
3771;SDS011;1901;48.172;12.824;2023-10-13T01:26:13;7.80;;;3.80;;
3771;SDS011;1901;48.172;12.824;2023-10-13T01:28:46;10.30;;;4.10;;
3771;SDS011;1901;48.172;12.824;2023-10-13T01:31:15;5.80;;;3.37;;
3771;SDS011;1901;48.172;12.824;2023-10-13T01:33:52;5.23;;;3.50;;
3771;SDS011;1901;48.172;12.824;2023-10-13T01:36:19;7.03;;;4.10;;
3771;SDS011;1901;48.172;12.824;2023-10-13T01:38:50;6.57;;;3.53;;
3771;SDS011;1901;48.172;12.824;2023-10-13T01:41:17;5.10;;;3.37;;
3771;SDS011;1901;48.172;12.824;2023-10-13T01:43:44;6.57;;;3.20;;
3771;SDS011;1901;48.172;12.824;2023-10-13T01:46:10;6.17;;;3.27;;
3771;SDS011;1901;48.172;12.824;2023-10-13T01:48:40;6.10;;;4.13;;
3771;SDS011;1901;48.172;12.824;2023-10-13T01:51:08;8.60;;;4.60;;
3771;SDS011;1901;48.172;12.824;2023-10-13T01:53:36;13.20;;;4.10;;
3771;SDS011;1901;48.172;12.824;2023-10-13T01:56:05;8.10;;;3.60;;
3771;SDS011;1901;48.172;12.824;2023-10-13T01:58:35;5.60;;;4.00;;
3771;SDS011;1901;48.172;12.824;2023-10-13T02:01:01;8.27;;;4.13;;
3771;SDS011;1901;48.172;12.824;2023-10-13T02:03:32;11.37;;;4.43;;
3771;SDS011;1901;48.172;12.824;2023-10-13T02:05:58;14.17;;;4.13;;
3771;SDS011;1901;48.172;12.824;2023-10-13T02:08:30;6.90;;;4.50;;
3771;SDS011;1901;48.172;12.824;2023-10-13T02:10:56;5.73;;;3.70;;
3771;SDS011;1901;48.172;12.824;2023-10-13T02:13:28;7.23;;;4.60;;
3771;SDS011;1901;48.172;12.824;2023-10-13T02:15:56;9.73;;;3.87;;
3771;SDS011;1901;48.172;12.824;2023-10-13T02:18:28;10.17;;;4.30;;
3771;SDS011;1901;48.172;12.824;2023-10-13T02:21:02;8.53;;;4.43;;
3771;SDS011;1901;48.172;12.824;2023-10-13T02:23:30;11.60;;;4.20;;
3771;SDS011;1901;48.172;12.824;2023-10-13T02:25:59;7.83;;;4.80;;
3771;SDS011;1901;48.172;12.824;2023-10-13T02:28:37;9.13;;;5.17;;
3771;SDS011;1901;48.172;12.824;2023-10-13T02:31:03;8.30;;;4.40;;
3771;SDS011;1901;48.172;12.824;2023-10-13T02:33:31;7.83;;;3.83;;
3771;SDS011;1901;48.172;12.824;2023-10-13T02:35:58;5.63;;;3.63;;
3771;SDS011;1901;48.172;12.824;2023-10-13T02:38:29;9.60;;;4.10;;
3771;SDS011;1901;48.172;12.824;2023-10-13T02:41:09;10.60;;;4.57;;
3771;SDS011;1901;48.172;12.824;2023-10-13T02:43:38;7.60;;;4.77;;
3771;SDS011;1901;48.172;12.824;2023-10-13T02:46:04;7.67;;;4.17;;
3771;SDS011;1901;48.172;12.824;2023-10-13T02:48:31;8.00;;;4.83;;
3771;SDS011;1901;48.172;12.824;2023-10-13T02:51:05;6.43;;;4.13;;
3771;SDS011;1901;48.172;12.824;2023-10-13T02:53:40;7.43;;;4.57;;
3771;SDS011;1901;48.172;12.824;2023-10-13T02:56:12;7.70;;;4.77;;
3771;SDS011;1901;48.172;12.824;2023-10-13T02:58:40;5.67;;;3.90;;
3771;SDS011;1901;48.172;12.824;2023-10-13T03:01:12;9.63;;;5.70;;
3771;SDS011;1901;48.172;12.824;2023-10-13T03:03:46;10.60;;;4.87;;
3771;SDS011;1901;48.172;12.824;2023-10-13T03:06:16;8.30;;;3.57;;
3771;SDS011;1901;48.172;12.824;2023-10-13T03:08:43;10.03;;;4.60;;
3771;SDS011;1901;48.172;12.824;2023-10-13T03:11:10;6.70;;;4.70;;
3771;SDS011;1901;48.172;12.824;2023-10-13T03:13:40;6.13;;;3.77;;
3771;SDS011;1901;48.172;12.824;2023-10-13T03:16:13;6.50;;;3.80;;
3771;SDS011;1901;48.172;12.824;2023-10-13T03:18:41;8.17;;;4.60;;
3771;SDS011;1901;48.172;12.824;2023-10-13T03:21:16;5.50;;;4.03;;
3771;SDS011;1901;48.172;12.824;2023-10-13T03:23:53;11.33;;;4.67;;
3771;SDS011;1901;48.172;12.824;2023-10-13T03:26:29;8.90;;;5.40;;
3771;SDS011;1901;48.172;12.824;2023-10-13T03:29:01;8.47;;;4.73;;
3771;SDS011;1901;48.172;12.824;2023-10-13T03:31:32;8.63;;;4.63;;
3771;SDS011;1901;48.172;12.824;2023-10-13T03:34:03;8.27;;;4.30;;
3771;SDS011;1901;48.172;12.824;2023-10-13T03:36:29;6.47;;;3.77;;
3771;SDS011;1901;48.172;12.824;2023-10-13T03:39:14;8.30;;;4.83;;
3771;SDS011;1901;48.172;12.824;2023-10-13T03:41:44;8.57;;;4.70;;
3771;SDS011;1901;48.172;12.824;2023-10-13T03:44:19;9.60;;;4.63;;
3771;SDS011;1901;48.172;12.824;2023-10-13T03:46:48;10.23;;;5.30;;
3771;SDS011;1901;48.172;12.824;2023-10-13T03:49:19;13.57;;;7.00;;
3771;SDS011;1901;48.172;12.824;2023-10-13T03:51:48;9.50;;;4.70;;
3771;SDS011;1901;48.172;12.824;2023-10-13T03:54:19;5.23;;;4.67;;
3771;SDS011;1901;48.172;12.824;2023-10-13T03:56:46;8.23;;;4.47;;
3771;SDS011;1901;48.172;12.824;2023-10-13T03:59:17;6.27;;;4.80;;
3771;SDS011;1901;48.172;12.824;2023-10-13T04:01:46;7.90;;;5.73;;
3771;SDS011;1901;48.172;12.824;2023-10-13T04:04:23;6.43;;;4.90;;
3771;SDS011;1901;48.172;12.824;2023-10-13T04:06:59;6.53;;;4.90;;
3771;SDS011;1901;48.172;12.824;2023-10-13T04:09:52;6.07;;;5.33;;
3771;SDS011;1901;48.172;12.824;2023-10-13T04:12:55;8.30;;;5.20;;
3771;SDS011;1901;48.172;12.824;2023-10-13T04:15:42;9.13;;;4.90;;
3771;SDS011;1901;48.172;12.824;2023-10-13T04:18:26;6.90;;;4.63;;
3771;SDS011;1901;48.172;12.824;2023-10-13T04:20:59;9.33;;;4.60;;
3771;SDS011;1901;48.172;12.824;2023-10-13T04:23:44;9.70;;;4.50;;
3771;SDS011;1901;48.172;12.824;2023-10-13T04:26:25;8.90;;;5.30;;
3771;SDS011;1901;48.172;12.824;2023-10-13T04:29:02;9.27;;;4.63;;
3771;SDS011;1901;48.172;12.824;2023-10-13T04:31:36;13.53;;;5.10;;
3771;SDS011;1901;48.172;12.824;2023-10-13T04:34:22;8.73;;;5.10;;
3771;SDS011;1901;48.172;12.824;2023-10-13T04:36:53;12.40;;;6.27;;
3771;SDS011;1901;48.172;12.824;2023-10-13T04:39:36;8.13;;;4.93;;
3771;SDS011;1901;48.172;12.824;2023-10-13T04:42:04;9.83;;;5.90;;
3771;SDS011;1901;48.172;12.824;2023-10-13T04:44:51;12.00;;;7.77;;
3771;SDS011;1901;48.172;12.824;2023-10-13T04:47:23;10.13;;;5.03;;
3771;SDS011;1901;48.172;12.824;2023-10-13T04:49:55;8.17;;;5.40;;
3771;SDS011;1901;48.172;12.824;2023-10-13T04:52:25;9.37;;;6.03;;
3771;SDS011;1901;48.172;12.824;2023-10-13T04:55:26;11.47;;;5.93;;
3771;SDS011;1901;48.172;12.824;2023-10-13T04:58:13;6.40;;;4.47;;
3771;SDS011;1901;48.172;12.824;2023-10-13T05:01:09;15.63;;;6.17;;
3771;SDS011;1901;48.172;12.824;2023-10-13T05:04:02;11.87;;;4.13;;
3771;SDS011;1901;48.172;12.824;2023-10-13T05:06:47;8.63;;;5.07;;
3771;SDS011;1901;48.172;12.824;2023-10-13T05:09:32;10.10;;;4.50;;
3771;SDS011;1901;48.172;12.824;2023-10-13T05:12:17;6.83;;;4.83;;
3771;SDS011;1901;48.172;12.824;2023-10-13T05:15:02;8.07;;;4.50;;
3771;SDS011;1901;48.172;12.824;2023-10-13T05:17:47;10.40;;;6.40;;
3771;SDS011;1901;48.172;12.824;2023-10-13T05:20:31;10.30;;;5.90;;
3771;SDS011;1901;48.172;12.824;2023-10-13T05:23:16;9.23;;;5.33;;
3771;SDS011;1901;48.172;12.824;2023-10-13T05:26:15;8.87;;;6.17;;
3771;SDS011;1901;48.172;12.824;2023-10-13T05:29:00;9.30;;;5.40;;
3771;SDS011;1901;48.172;12.824;2023-10-13T05:31:44;7.87;;;5.87;;
3771;SDS011;1901;48.172;12.824;2023-10-13T05:34:30;10.40;;;6.37;;
3771;SDS011;1901;48.172;12.824;2023-10-13T05:37:15;10.63;;;5.33;;
3771;SDS011;1901;48.172;12.824;2023-10-13T05:40:01;6.93;;;5.50;;
3771;SDS011;1901;48.172;12.824;2023-10-13T05:42:46;10.17;;;6.37;;
3771;SDS011;1901;48.172;12.824;2023-10-13T05:45:31;9.93;;;5.33;;
3771;SDS011;1901;48.172;12.824;2023-10-13T05:48:26;8.03;;;5.90;;
3771;SDS011;1901;48.172;12.824;2023-10-13T05:51:17;15.87;;;5.37;;
3771;SDS011;1901;48.172;12.824;2023-10-13T05:54:09;7.40;;;4.50;;
3771;SDS011;1901;48.172;12.824;2023-10-13T05:56:55;11.73;;;4.70;;
3771;SDS011;1901;48.172;12.824;2023-10-13T05:59:40;5.40;;;4.40;;
3771;SDS011;1901;48.172;12.824;2023-10-13T06:02:25;9.20;;;5.70;;
3771;SDS011;1901;48.172;12.824;2023-10-13T06:05:10;14.20;;;6.77;;
3771;SDS011;1901;48.172;12.824;2023-10-13T06:07:55;6.20;;;4.80;;
3771;SDS011;1901;48.172;12.824;2023-10-13T06:10:40;9.83;;;5.57;;
3771;SDS011;1901;48.172;12.824;2023-10-13T06:13:27;6.87;;;5.37;;
3771;SDS011;1901;48.172;12.824;2023-10-13T06:16:12;7.30;;;4.30;;
3771;SDS011;1901;48.172;12.824;2023-10-13T06:18:57;10.27;;;4.27;;
3771;SDS011;1901;48.172;12.824;2023-10-13T06:21:42;6.30;;;4.47;;
3771;SDS011;1901;48.172;12.824;2023-10-13T06:24:27;5.93;;;4.33;;
3771;SDS011;1901;48.172;12.824;2023-10-13T06:27:12;9.13;;;6.33;;
3771;SDS011;1901;48.172;12.824;2023-10-13T06:29:59;10.53;;;5.00;;
3771;SDS011;1901;48.172;12.824;2023-10-13T06:32:28;11.83;;;6.60;;
3771;SDS011;1901;48.172;12.824;2023-10-13T06:34:56;5.67;;;4.60;;
3771;SDS011;1901;48.172;12.824;2023-10-13T06:37:24;10.93;;;4.90;;
3771;SDS011;1901;48.172;12.824;2023-10-13T06:39:55;9.60;;;5.93;;
3771;SDS011;1901;48.172;12.824;2023-10-13T06:42:24;9.60;;;5.47;;
3771;SDS011;1901;48.172;12.824;2023-10-13T06:44:52;8.87;;;5.00;;
3771;SDS011;1901;48.172;12.824;2023-10-13T06:47:21;6.33;;;5.50;;
3771;SDS011;1901;48.172;12.824;2023-10-13T06:49:49;8.13;;;5.70;;
3771;SDS011;1901;48.172;12.824;2023-10-13T06:52:17;11.47;;;4.90;;
3771;SDS011;1901;48.172;12.824;2023-10-13T06:54:44;5.27;;;3.80;;
3771;SDS011;1901;48.172;12.824;2023-10-13T06:57:12;7.57;;;4.43;;
3771;SDS011;1901;48.172;12.824;2023-10-13T06:59:40;9.37;;;5.53;;
3771;SDS011;1901;48.172;12.824;2023-10-13T07:02:07;7.70;;;5.73;;
3771;SDS011;1901;48.172;12.824;2023-10-13T07:04:46;7.57;;;4.67;;
3771;SDS011;1901;48.172;12.824;2023-10-13T07:07:21;18.57;;;5.87;;
3771;SDS011;1901;48.172;12.824;2023-10-13T07:09:49;10.27;;;5.47;;
3771;SDS011;1901;48.172;12.824;2023-10-13T07:12:20;15.73;;;4.77;;
3771;SDS011;1901;48.172;12.824;2023-10-13T07:14:51;5.27;;;4.03;;
3771;SDS011;1901;48.172;12.824;2023-10-13T07:17:24;7.23;;;5.10;;
3771;SDS011;1901;48.172;12.824;2023-10-13T07:19:53;6.77;;;4.40;;
3771;SDS011;1901;48.172;12.824;2023-10-13T07:22:22;8.70;;;5.30;;
3771;SDS011;1901;48.172;12.824;2023-10-13T07:24:51;5.93;;;4.30;;
3771;SDS011;1901;48.172;12.824;2023-10-13T07:27:18;9.73;;;4.60;;
3771;SDS011;1901;48.172;12.824;2023-10-13T07:29:49;5.27;;;4.20;;
3771;SDS011;1901;48.172;12.824;2023-10-13T07:32:30;4.60;;;4.20;;
3771;SDS011;1901;48.172;12.824;2023-10-13T07:35:01;11.63;;;4.23;;
3771;SDS011;1901;48.172;12.824;2023-10-13T07:37:32;7.90;;;5.50;;
3771;SDS011;1901;48.172;12.824;2023-10-13T07:40:00;6.80;;;5.07;;
3771;SDS011;1901;48.172;12.824;2023-10-13T07:42:37;7.27;;;4.07;;
3771;SDS011;1901;48.172;12.824;2023-10-13T07:45:05;5.30;;;3.77;;
3771;SDS011;1901;48.172;12.824;2023-10-13T07:47:36;8.07;;;4.20;;
3771;SDS011;1901;48.172;12.824;2023-10-13T07:50:06;7.50;;;3.77;;
3771;SDS011;1901;48.172;12.824;2023-10-13T07:52:35;5.90;;;3.77;;
3771;SDS011;1901;48.172;12.824;2023-10-13T07:55:02;7.03;;;3.30;;
3771;SDS011;1901;48.172;12.824;2023-10-13T07:57:39;9.37;;;4.70;;
3771;SDS011;1901;48.172;12.824;2023-10-13T08:00:19;5.70;;;3.90;;
3771;SDS011;1901;48.172;12.824;2023-10-13T08:03:11;7.63;;;4.83;;
3771;SDS011;1901;48.172;12.824;2023-10-13T08:05:59;5.53;;;3.43;;
3771;SDS011;1901;48.172;12.824;2023-10-13T08:08:32;7.07;;;4.37;;
3771;SDS011;1901;48.172;12.824;2023-10-13T08:11:04;4.73;;;3.83;;
3771;SDS011;1901;48.172;12.824;2023-10-13T08:13:49;7.83;;;4.83;;
3771;SDS011;1901;48.172;12.824;2023-10-13T08:16:21;9.87;;;5.13;;
3771;SDS011;1901;48.172;12.824;2023-10-13T08:18:56;3.97;;;3.27;;
3771;SDS011;1901;48.172;12.824;2023-10-13T08:21:27;5.57;;;4.40;;
3771;SDS011;1901;48.172;12.824;2023-10-13T08:23:57;9.27;;;4.20;;
3771;SDS011;1901;48.172;12.824;2023-10-13T08:26:30;6.40;;;3.73;;
3771;SDS011;1901;48.172;12.824;2023-10-13T08:29:22;9.47;;;3.90;;
3771;SDS011;1901;48.172;12.824;2023-10-13T08:32:07;8.10;;;3.63;;
3771;SDS011;1901;48.172;12.824;2023-10-13T08:34:48;7.20;;;3.93;;
3771;SDS011;1901;48.172;12.824;2023-10-13T08:37:36;5.90;;;3.97;;
3771;SDS011;1901;48.172;12.824;2023-10-13T08:40:22;12.43;;;3.83;;
3771;SDS011;1901;48.172;12.824;2023-10-13T08:43:03;7.20;;;4.60;;
3771;SDS011;1901;48.172;12.824;2023-10-13T08:45:37;6.67;;;4.63;;
3771;SDS011;1901;48.172;12.824;2023-10-13T08:48:24;6.73;;;3.67;;
3771;SDS011;1901;48.172;12.824;2023-10-13T08:50:59;6.10;;;4.93;;
3771;SDS011;1901;48.172;12.824;2023-10-13T08:53:37;8.47;;;4.63;;
3771;SDS011;1901;48.172;12.824;2023-10-13T08:56:18;4.60;;;3.50;;
3771;SDS011;1901;48.172;12.824;2023-10-13T08:58:58;4.10;;;3.33;;
3771;SDS011;1901;48.172;12.824;2023-10-13T09:01:31;5.60;;;3.13;;
3771;SDS011;1901;48.172;12.824;2023-10-13T09:04:00;6.80;;;3.90;;
3771;SDS011;1901;48.172;12.824;2023-10-13T09:06:42;11.30;;;4.57;;
3771;SDS011;1901;48.172;12.824;2023-10-13T09:09:13;4.50;;;3.50;;
3771;SDS011;1901;48.172;12.824;2023-10-13T09:11:52;9.03;;;3.57;;
3771;SDS011;1901;48.172;12.824;2023-10-13T09:14:33;7.23;;;3.73;;
3771;SDS011;1901;48.172;12.824;2023-10-13T09:17:09;7.23;;;4.23;;
3771;SDS011;1901;48.172;12.824;2023-10-13T09:19:44;12.60;;;4.60;;
3771;SDS011;1901;48.172;12.824;2023-10-13T09:22:20;10.07;;;6.00;;
3771;SDS011;1901;48.172;12.824;2023-10-13T09:24:57;10.17;;;3.53;;
3771;SDS011;1901;48.172;12.824;2023-10-13T09:27:28;6.30;;;3.60;;
3771;SDS011;1901;48.172;12.824;2023-10-13T09:29:55;4.70;;;3.30;;
3771;SDS011;1901;48.172;12.824;2023-10-13T09:32:22;12.23;;;3.93;;
3771;SDS011;1901;48.172;12.824;2023-10-13T09:34:48;5.80;;;4.00;;
3771;SDS011;1901;48.172;12.824;2023-10-13T09:37:16;10.73;;;3.30;;
3771;SDS011;1901;48.172;12.824;2023-10-13T09:39:46;10.00;;;4.10;;
3771;SDS011;1901;48.172;12.824;2023-10-13T09:42:21;5.90;;;4.77;;
3771;SDS011;1901;48.172;12.824;2023-10-13T09:44:51;10.03;;;3.40;;
3771;SDS011;1901;48.172;12.824;2023-10-13T09:47:21;13.40;;;4.30;;
3771;SDS011;1901;48.172;12.824;2023-10-13T09:49:57;5.90;;;3.40;;
3771;SDS011;1901;48.172;12.824;2023-10-13T09:52:29;8.17;;;4.37;;
3771;SDS011;1901;48.172;12.824;2023-10-13T09:55:02;11.33;;;4.10;;
3771;SDS011;1901;48.172;12.824;2023-10-13T09:57:36;6.70;;;4.27;;
3771;SDS011;1901;48.172;12.824;2023-10-13T10:00:09;8.93;;;3.37;;
3771;SDS011;1901;48.172;12.824;2023-10-13T10:02:59;7.93;;;3.40;;
3771;SDS011;1901;48.172;12.824;2023-10-13T10:05:39;5.20;;;3.70;;
3771;SDS011;1901;48.172;12.824;2023-10-13T10:08:06;4.73;;;4.00;;
3771;SDS011;1901;48.172;12.824;2023-10-13T10:10:43;8.27;;;4.83;;
3771;SDS011;1901;48.172;12.824;2023-10-13T10:13:13;6.53;;;3.57;;
3771;SDS011;1901;48.172;12.824;2023-10-13T10:15:44;5.93;;;3.80;;
3771;SDS011;1901;48.172;12.824;2023-10-13T10:18:17;4.63;;;3.70;;
3771;SDS011;1901;48.172;12.824;2023-10-13T10:20:47;6.80;;;3.80;;
3771;SDS011;1901;48.172;12.824;2023-10-13T10:23:26;12.13;;;4.10;;
3771;SDS011;1901;48.172;12.824;2023-10-13T10:26:08;4.80;;;3.20;;
3771;SDS011;1901;48.172;12.824;2023-10-13T10:28:38;10.80;;;4.40;;
3771;SDS011;1901;48.172;12.824;2023-10-13T10:31:07;5.90;;;3.47;;
3771;SDS011;1901;48.172;12.824;2023-10-13T10:33:40;7.27;;;3.23;;
3771;SDS011;1901;48.172;12.824;2023-10-13T10:36:08;3.93;;;3.03;;
3771;SDS011;1901;48.172;12.824;2023-10-13T10:38:51;7.20;;;3.70;;
3771;SDS011;1901;48.172;12.824;2023-10-13T10:41:25;7.57;;;3.70;;
3771;SDS011;1901;48.172;12.824;2023-10-13T10:43:58;7.10;;;4.13;;
3771;SDS011;1901;48.172;12.824;2023-10-13T10:46:28;4.57;;;3.30;;
3771;SDS011;1901;48.172;12.824;2023-10-13T10:49:03;12.23;;;4.07;;
3771;SDS011;1901;48.172;12.824;2023-10-13T10:51:33;8.80;;;3.70;;
3771;SDS011;1901;48.172;12.824;2023-10-13T10:54:17;5.97;;;3.17;;
3771;SDS011;1901;48.172;12.824;2023-10-13T10:56:45;7.00;;;3.80;;
3771;SDS011;1901;48.172;12.824;2023-10-13T10:59:20;4.67;;;2.97;;
3771;SDS011;1901;48.172;12.824;2023-10-13T11:01:50;5.83;;;3.40;;
3771;SDS011;1901;48.172;12.824;2023-10-13T11:04:17;10.17;;;3.20;;
3771;SDS011;1901;48.172;12.824;2023-10-13T11:06:50;6.20;;;3.10;;
3771;SDS011;1901;48.172;12.824;2023-10-13T11:09:23;8.50;;;3.73;;
3771;SDS011;1901;48.172;12.824;2023-10-13T11:11:57;7.90;;;3.90;;
3771;SDS011;1901;48.172;12.824;2023-10-13T11:14:30;9.03;;;3.57;;
3771;SDS011;1901;48.172;12.824;2023-10-13T11:16:58;4.57;;;2.93;;
3771;SDS011;1901;48.172;12.824;2023-10-13T11:19:36;7.40;;;3.27;;
3771;SDS011;1901;48.172;12.824;2023-10-13T11:22:09;5.10;;;2.50;;
3771;SDS011;1901;48.172;12.824;2023-10-13T11:24:41;6.97;;;3.13;;
3771;SDS011;1901;48.172;12.824;2023-10-13T11:27:13;6.27;;;2.87;;
3771;SDS011;1901;48.172;12.824;2023-10-13T11:29:47;7.10;;;3.20;;
3771;SDS011;1901;48.172;12.824;2023-10-13T11:32:17;5.07;;;2.70;;
3771;SDS011;1901;48.172;12.824;2023-10-13T11:34:45;5.30;;;3.23;;
3771;SDS011;1901;48.172;12.824;2023-10-13T11:37:17;3.60;;;2.73;;
3771;SDS011;1901;48.172;12.824;2023-10-13T11:40:03;7.60;;;3.53;;
3771;SDS011;1901;48.172;12.824;2023-10-13T11:42:37;7.43;;;3.33;;
3771;SDS011;1901;48.172;12.824;2023-10-13T11:45:10;12.13;;;5.40;;
3771;SDS011;1901;48.172;12.824;2023-10-13T11:47:54;14.63;;;4.50;;
3771;SDS011;1901;48.172;12.824;2023-10-13T11:50:24;6.73;;;3.20;;
3771;SDS011;1901;48.172;12.824;2023-10-13T11:52:59;9.30;;;3.70;;
3771;SDS011;1901;48.172;12.824;2023-10-13T11:55:26;6.17;;;2.93;;
3771;SDS011;1901;48.172;12.824;2023-10-13T11:57:55;7.80;;;4.40;;
3771;SDS011;1901;48.172;12.824;2023-10-13T12:00:29;5.70;;;3.20;;
3771;SDS011;1901;48.172;12.824;2023-10-13T12:03:16;11.73;;;3.53;;
3771;SDS011;1901;48.172;12.824;2023-10-13T12:06:00;6.00;;;3.17;;
3771;SDS011;1901;48.172;12.824;2023-10-13T12:08:44;13.10;;;3.13;;
3771;SDS011;1901;48.172;12.824;2023-10-13T12:11:16;8.80;;;3.33;;
3771;SDS011;1901;48.172;12.824;2023-10-13T12:14:03;4.83;;;2.53;;
3771;SDS011;1901;48.172;12.824;2023-10-13T12:16:43;4.90;;;2.90;;
3771;SDS011;1901;48.172;12.824;2023-10-13T12:19:14;4.80;;;3.23;;
3771;SDS011;1901;48.172;12.824;2023-10-13T12:21:41;10.53;;;3.47;;
3771;SDS011;1901;48.172;12.824;2023-10-13T12:24:10;8.40;;;3.43;;
3771;SDS011;1901;48.172;12.824;2023-10-13T12:26:55;7.00;;;3.13;;
3771;SDS011;1901;48.172;12.824;2023-10-13T12:29:23;4.93;;;3.00;;
3771;SDS011;1901;48.172;12.824;2023-10-13T12:31:55;5.87;;;2.73;;
3771;SDS011;1901;48.172;12.824;2023-10-13T12:34:34;9.20;;;2.77;;
3771;SDS011;1901;48.172;12.824;2023-10-13T12:37:22;6.40;;;3.10;;
3771;SDS011;1901;48.172;12.824;2023-10-13T12:40:29;9.83;;;3.07;;
3771;SDS011;1901;48.172;12.824;2023-10-13T12:43:14;8.53;;;3.00;;
3771;SDS011;1901;48.172;12.824;2023-10-13T12:45:59;9.93;;;3.17;;
3771;SDS011;1901;48.172;12.824;2023-10-13T12:48:45;8.70;;;3.80;;
3771;SDS011;1901;48.172;12.824;2023-10-13T12:51:29;11.10;;;3.80;;
3771;SDS011;1901;48.172;12.824;2023-10-13T12:54:16;6.53;;;3.10;;
3771;SDS011;1901;48.172;12.824;2023-10-13T12:56:48;7.40;;;2.90;;
3771;SDS011;1901;48.172;12.824;2023-10-13T12:59:21;8.50;;;4.10;;
3771;SDS011;1901;48.172;12.824;2023-10-13T13:01:51;8.00;;;3.20;;
3771;SDS011;1901;48.172;12.824;2023-10-13T13:04:20;12.80;;;5.10;;
3771;SDS011;1901;48.172;12.824;2023-10-13T13:06:50;8.40;;;3.20;;
3771;SDS011;1901;48.172;12.824;2023-10-13T13:09:19;10.43;;;3.80;;
3771;SDS011;1901;48.172;12.824;2023-10-13T13:11:51;9.60;;;4.43;;
3771;SDS011;1901;48.172;12.824;2023-10-13T13:14:22;4.20;;;3.00;;
3771;SDS011;1901;48.172;12.824;2023-10-13T13:16:54;5.37;;;3.47;;
3771;SDS011;1901;48.172;12.824;2023-10-13T13:19:27;6.63;;;2.90;;
3771;SDS011;1901;48.172;12.824;2023-10-13T13:21:54;7.67;;;2.80;;
3771;SDS011;1901;48.172;12.824;2023-10-13T13:24:21;8.40;;;3.07;;
3771;SDS011;1901;48.172;12.824;2023-10-13T13:26:49;5.47;;;2.70;;
3771;SDS011;1901;48.172;12.824;2023-10-13T13:29:19;12.50;;;3.00;;
3771;SDS011;1901;48.172;12.824;2023-10-13T13:31:48;10.00;;;2.50;;
3771;SDS011;1901;48.172;12.824;2023-10-13T13:34:15;10.10;;;3.00;;
3771;SDS011;1901;48.172;12.824;2023-10-13T13:36:47;7.00;;;2.70;;
3771;SDS011;1901;48.172;12.824;2023-10-13T13:39:17;7.83;;;2.80;;
3771;SDS011;1901;48.172;12.824;2023-10-13T13:41:54;12.23;;;3.00;;
3771;SDS011;1901;48.172;12.824;2023-10-13T13:44:22;6.07;;;2.93;;
3771;SDS011;1901;48.172;12.824;2023-10-13T13:46:54;6.13;;;2.67;;
3771;SDS011;1901;48.172;12.824;2023-10-13T13:49:22;11.10;;;4.23;;
3771;SDS011;1901;48.172;12.824;2023-10-13T13:51:56;20.13;;;3.50;;
3771;SDS011;1901;48.172;12.824;2023-10-13T13:54:29;5.13;;;3.37;;
3771;SDS011;1901;48.172;12.824;2023-10-13T13:56:56;12.13;;;3.23;;
3771;SDS011;1901;48.172;12.824;2023-10-13T13:59:24;7.73;;;3.13;;
3771;SDS011;1901;48.172;12.824;2023-10-13T14:01:58;7.03;;;3.10;;
3771;SDS011;1901;48.172;12.824;2023-10-13T14:04:26;11.83;;;3.30;;
3771;SDS011;1901;48.172;12.824;2023-10-13T14:06:57;8.43;;;3.10;;
3771;SDS011;1901;48.172;12.824;2023-10-13T14:09:25;10.73;;;3.50;;
3771;SDS011;1901;48.172;12.824;2023-10-13T14:12:03;9.23;;;2.90;;
3771;SDS011;1901;48.172;12.824;2023-10-13T14:14:48;6.73;;;3.40;;
3771;SDS011;1901;48.172;12.824;2023-10-13T14:17:21;11.60;;;3.60;;
3771;SDS011;1901;48.172;12.824;2023-10-13T14:19:53;9.73;;;3.10;;
3771;SDS011;1901;48.172;12.824;2023-10-13T14:22:22;9.70;;;3.43;;
3771;SDS011;1901;48.172;12.824;2023-10-13T14:24:51;5.27;;;2.47;;
3771;SDS011;1901;48.172;12.824;2023-10-13T14:27:20;14.00;;;2.77;;
3771;SDS011;1901;48.172;12.824;2023-10-13T14:29:50;10.63;;;3.27;;
3771;SDS011;1901;48.172;12.824;2023-10-13T14:32:19;7.70;;;3.07;;
3771;SDS011;1901;48.172;12.824;2023-10-13T14:34:49;9.63;;;3.00;;
3771;SDS011;1901;48.172;12.824;2023-10-13T14:37:22;4.77;;;2.90;;
3771;SDS011;1901;48.172;12.824;2023-10-13T14:39:54;5.63;;;3.00;;
3771;SDS011;1901;48.172;12.824;2023-10-13T14:42:22;5.27;;;2.80;;
3771;SDS011;1901;48.172;12.824;2023-10-13T14:44:49;8.83;;;3.33;;
3771;SDS011;1901;48.172;12.824;2023-10-13T14:47:20;8.50;;;3.37;;
3771;SDS011;1901;48.172;12.824;2023-10-13T14:49:49;10.33;;;3.77;;
3771;SDS011;1901;48.172;12.824;2023-10-13T14:52:19;8.17;;;2.90;;
3771;SDS011;1901;48.172;12.824;2023-10-13T14:54:48;9.20;;;3.33;;
3771;SDS011;1901;48.172;12.824;2023-10-13T14:57:20;11.97;;;4.23;;
3771;SDS011;1901;48.172;12.824;2023-10-13T14:59:49;8.70;;;2.60;;
3771;SDS011;1901;48.172;12.824;2023-10-13T15:02:16;10.83;;;3.00;;
3771;SDS011;1901;48.172;12.824;2023-10-13T15:04:44;19.50;;;3.30;;
3771;SDS011;1901;48.172;12.824;2023-10-13T15:07:13;10.50;;;3.43;;
3771;SDS011;1901;48.172;12.824;2023-10-13T15:09:41;6.33;;;3.50;;
3771;SDS011;1901;48.172;12.824;2023-10-13T15:12:10;6.73;;;4.07;;
3771;SDS011;1901;48.172;12.824;2023-10-13T15:14:38;5.77;;;3.50;;
3771;SDS011;1901;48.172;12.824;2023-10-13T15:17:07;11.50;;;3.87;;
3771;SDS011;1901;48.172;12.824;2023-10-13T15:19:35;10.90;;;3.07;;
3771;SDS011;1901;48.172;12.824;2023-10-13T15:22:03;7.60;;;3.63;;
3771;SDS011;1901;48.172;12.824;2023-10-13T15:24:33;8.13;;;3.80;;
3771;SDS011;1901;48.172;12.824;2023-10-13T15:27:13;10.13;;;4.27;;
3771;SDS011;1901;48.172;12.824;2023-10-13T15:29:46;10.87;;;4.00;;
3771;SDS011;1901;48.172;12.824;2023-10-13T15:32:16;7.57;;;3.80;;
3771;SDS011;1901;48.172;12.824;2023-10-13T15:35:12;8.13;;;3.80;;
3771;SDS011;1901;48.172;12.824;2023-10-13T15:37:39;5.63;;;3.30;;
3771;SDS011;1901;48.172;12.824;2023-10-13T15:40:07;7.77;;;3.10;;